createdAt,value
2017-12-22T00:00:02.815Z,6.60
2017-12-22T00:02:30.340Z,6.60
2017-12-22T00:04:57.862Z,6.70
2017-12-22T00:07:25.371Z,6.50
2017-12-22T00:09:52.864Z,6.50
2017-12-22T00:12:20.398Z,6.70
2017-12-22T00:14:47.900Z,6.70
2017-12-22T00:17:15.426Z,6.80
2017-12-22T00:19:42.940Z,6.70
2017-12-22T00:22:10.455Z,6.70
2017-12-22T00:24:37.995Z,6.70
2017-12-22T00:27:05.512Z,6.80
2017-12-22T00:29:33.779Z,6.70
2017-12-22T00:32:02.063Z,6.80
2017-12-22T00:34:30.824Z,6.60
2017-12-22T00:36:59.022Z,6.60
2017-12-22T00:39:27.297Z,6.60
2017-12-22T00:41:55.579Z,6.50
2017-12-22T00:44:23.891Z,6.50
2017-12-22T00:46:51.381Z,6.50
2017-12-22T00:49:18.882Z,6.50
2017-12-22T00:51:46.475Z,6.60
2017-12-22T00:54:13.979Z,6.70
2017-12-22T00:56:41.483Z,6.70
2017-12-22T00:59:09.236Z,6.60
2017-12-22T01:01:36.728Z,6.60
2017-12-22T01:04:04.267Z,6.70
2017-12-22T01:06:31.794Z,6.70
2017-12-22T01:09:00.064Z,6.70
2017-12-22T01:11:28.408Z,6.60
2017-12-22T01:13:55.937Z,6.60
2017-12-22T01:16:29.179Z,6.80
2017-12-22T01:19:02.557Z,6.70
2017-12-22T01:21:30.078Z,6.80
2017-12-22T01:23:57.590Z,6.70
2017-12-22T01:26:25.913Z,6.80
2017-12-22T01:28:53.442Z,6.80
2017-12-22T01:31:20.947Z,6.70
2017-12-22T01:33:48.494Z,6.80
2017-12-22T01:36:16.010Z,6.80
2017-12-22T01:38:43.510Z,6.70
2017-12-22T01:41:11.031Z,6.70
2017-12-22T01:43:38.554Z,6.70
2017-12-22T01:46:06.059Z,6.60
2017-12-22T01:48:34.325Z,6.80
2017-12-22T01:51:01.889Z,6.80
2017-12-22T01:53:29.397Z,6.90
2017-12-22T01:55:56.915Z,6.90
2017-12-22T01:58:25.215Z,6.90
2017-12-22T02:00:52.806Z,6.80
2017-12-22T02:03:20.306Z,6.80
2017-12-22T02:05:47.823Z,6.80
2017-12-22T02:08:15.339Z,6.70
2017-12-22T02:10:42.859Z,6.90
2017-12-22T02:13:10.360Z,7.00
2017-12-22T02:15:38.623Z,7.10
2017-12-22T02:18:06.941Z,6.90
2017-12-22T02:20:34.443Z,6.90
2017-12-22T02:23:01.945Z,7.10
2017-12-22T02:25:29.474Z,7.10
2017-12-22T02:27:57.137Z,7.00
2017-12-22T02:30:25.429Z,7.20
2017-12-22T02:32:53.690Z,7.00
2017-12-22T02:35:29.462Z,7.00
2017-12-22T02:37:57.154Z,7.00
2017-12-22T02:40:24.701Z,7.00
2017-12-22T02:42:52.215Z,7.00
2017-12-22T02:45:19.707Z,6.90
2017-12-22T02:47:47.217Z,7.00
2017-12-22T02:50:14.750Z,7.00
2017-12-22T02:52:42.266Z,7.00
2017-12-22T02:55:10.556Z,6.90
2017-12-22T02:57:38.072Z,6.90
2017-12-22T03:00:05.611Z,6.90
2017-12-22T03:02:33.117Z,6.90
2017-12-22T03:05:00.625Z,7.10
2017-12-22T03:07:28.144Z,7.20
2017-12-22T03:09:56.420Z,7.10
2017-12-22T03:12:24.702Z,7.00
2017-12-22T03:14:52.974Z,7.00
2017-12-22T03:17:21.250Z,6.90
2017-12-22T03:19:49.600Z,7.10
2017-12-22T03:22:17.119Z,7.10
2017-12-22T03:24:44.720Z,7.10
2017-12-22T03:27:12.242Z,7.10
2017-12-22T03:29:39.741Z,7.10
2017-12-22T03:32:07.238Z,7.20
2017-12-22T03:34:35.513Z,7.30
2017-12-22T03:37:03.799Z,7.20
2017-12-22T03:39:32.065Z,7.00
2017-12-22T03:42:00.350Z,7.20
2017-12-22T03:44:27.848Z,7.20
2017-12-22T03:46:55.392Z,7.10
2017-12-22T03:49:22.907Z,7.20
2017-12-22T03:51:51.192Z,7.20
2017-12-22T03:54:19.482Z,7.10
2017-12-22T03:56:47.750Z,7.30
2017-12-22T03:59:16.019Z,7.50
2017-12-22T04:01:44.300Z,7.40
2017-12-22T04:04:12.569Z,7.40
2017-12-22T04:06:40.078Z,7.30
2017-12-22T04:09:07.614Z,7.40
2017-12-22T04:11:35.143Z,7.40
2017-12-22T04:14:03.471Z,7.20
2017-12-22T04:16:30.998Z,7.20
2017-12-22T04:18:58.494Z,7.40
2017-12-22T04:21:26.006Z,7.40
2017-12-22T04:23:54.291Z,7.30
2017-12-22T04:26:22.556Z,7.40
2017-12-22T04:28:50.836Z,7.40
2017-12-22T04:31:19.122Z,7.50
2017-12-22T04:33:47.379Z,7.40
2017-12-22T04:36:15.000Z,7.40
2017-12-22T04:38:42.503Z,7.40
2017-12-22T04:41:10.024Z,7.40
2017-12-22T04:43:37.591Z,7.60
2017-12-22T04:46:05.856Z,7.50
2017-12-22T04:48:33.372Z,7.50
2017-12-22T04:51:01.636Z,7.60
2017-12-22T04:53:29.174Z,7.60
2017-12-22T04:55:56.666Z,7.50
2017-12-22T04:58:24.179Z,7.50
2017-12-22T05:00:51.678Z,7.60
2017-12-22T05:03:19.947Z,7.70
2017-12-22T05:05:47.456Z,7.70
2017-12-22T05:08:15.023Z,7.70
2017-12-22T05:10:42.534Z,7.70
2017-12-22T05:13:10.830Z,7.70
2017-12-22T05:15:38.342Z,7.70
2017-12-22T05:18:05.843Z,7.50
2017-12-22T05:20:33.351Z,7.40
2017-12-22T05:23:00.867Z,7.50
2017-12-22T05:25:28.386Z,7.60
2017-12-22T05:27:55.900Z,7.60
2017-12-22T05:30:23.402Z,7.60
2017-12-22T05:32:50.897Z,7.60
2017-12-22T05:35:18.410Z,7.60
2017-12-22T05:37:45.927Z,7.70
2017-12-22T05:40:13.440Z,7.50
2017-12-22T05:42:40.937Z,7.50
2017-12-22T05:45:09.218Z,7.70
2017-12-22T05:47:36.789Z,7.70
2017-12-22T05:50:04.292Z,7.80
2017-12-22T05:52:31.804Z,7.80
2017-12-22T05:54:59.341Z,8.00
2017-12-22T05:57:26.860Z,8.00
2017-12-22T05:59:54.378Z,8.10
2017-12-22T06:02:21.917Z,8.00
2017-12-22T06:04:49.431Z,8.00
2017-12-22T06:07:16.932Z,7.80
2017-12-22T06:09:45.223Z,7.90
2017-12-22T06:12:13.491Z,7.90
2017-12-22T06:14:41.782Z,8.00
2017-12-22T06:17:09.297Z,8.00
2017-12-22T06:19:36.821Z,7.90
2017-12-22T06:22:04.332Z,8.00
2017-12-22T06:24:31.865Z,8.00
2017-12-22T06:26:59.370Z,8.10
2017-12-22T06:29:27.660Z,8.00
2017-12-22T06:31:55.268Z,7.90
2017-12-22T06:34:22.753Z,7.80
2017-12-22T06:36:51.029Z,8.00
2017-12-22T06:39:18.548Z,8.00
2017-12-22T06:41:46.149Z,8.10
2017-12-22T06:44:13.668Z,8.10
2017-12-22T06:46:41.188Z,8.00
2017-12-22T06:49:09.459Z,7.90
2017-12-22T06:51:36.988Z,7.90
2017-12-22T06:54:04.511Z,7.90
2017-12-22T06:56:32.027Z,7.80
2017-12-22T06:59:00.326Z,7.80
2017-12-22T07:01:27.841Z,7.80
2017-12-22T07:03:55.364Z,7.80
2017-12-22T07:06:23.290Z,7.90
2017-12-22T07:08:51.660Z,7.80
2017-12-22T07:11:19.184Z,7.80
2017-12-22T07:13:46.687Z,7.80
2017-12-22T07:16:14.963Z,7.80
2017-12-22T07:18:43.264Z,7.80
2017-12-22T07:21:10.773Z,7.80
2017-12-22T07:23:38.294Z,7.80
2017-12-22T07:26:05.792Z,7.60
2017-12-22T07:28:33.324Z,7.70
2017-12-22T07:31:00.830Z,7.80
2017-12-22T07:33:28.364Z,7.60
2017-12-22T07:35:55.868Z,7.70
2017-12-22T07:38:23.402Z,7.60
2017-12-22T07:40:50.911Z,7.60
2017-12-22T07:43:18.443Z,7.60
2017-12-22T07:45:46.722Z,7.70
2017-12-22T07:48:15.008Z,7.60
2017-12-22T07:50:42.545Z,7.60
2017-12-22T07:53:10.076Z,7.70
2017-12-22T07:55:37.611Z,7.80
2017-12-22T07:58:05.148Z,7.80
2017-12-22T08:00:32.667Z,7.80
2017-12-22T08:03:00.167Z,7.90
2017-12-22T08:05:27.676Z,7.80
2017-12-22T08:07:55.254Z,7.90
2017-12-22T08:10:22.764Z,7.90
2017-12-22T08:12:50.262Z,7.90
2017-12-22T08:15:17.776Z,7.90
2017-12-22T08:17:45.276Z,7.80
2017-12-22T08:20:12.783Z,7.90
2017-12-22T08:22:40.280Z,7.90
2017-12-22T08:25:07.796Z,7.80
2017-12-22T08:27:35.341Z,7.80
2017-12-22T08:30:03.617Z,7.80
2017-12-22T08:32:32.227Z,7.70
2017-12-22T08:34:59.764Z,7.70
2017-12-22T08:37:28.091Z,7.70
2017-12-22T08:39:55.595Z,7.70
2017-12-22T08:42:23.088Z,7.80
2017-12-22T08:44:50.615Z,7.90
2017-12-22T08:47:18.902Z,8.00
2017-12-22T08:49:47.169Z,7.90
2017-12-22T08:52:15.437Z,7.70
2017-12-22T08:54:42.944Z,7.70
2017-12-22T08:57:10.491Z,7.90
2017-12-22T08:59:38.015Z,8.00
2017-12-22T09:02:05.519Z,7.80
2017-12-22T09:04:33.020Z,7.90
2017-12-22T09:07:00.534Z,7.90
2017-12-22T09:09:28.043Z,7.80
2017-12-22T09:11:55.557Z,7.90
2017-12-22T09:14:23.317Z,8.00
2017-12-22T09:16:50.852Z,7.90
2017-12-22T09:19:19.143Z,8.00
2017-12-22T09:21:46.675Z,8.00
2017-12-22T09:24:14.169Z,8.30
2017-12-22T09:26:41.669Z,8.00
2017-12-22T09:29:09.964Z,8.00
2017-12-22T09:31:38.259Z,8.00
2017-12-22T09:34:06.571Z,7.90
2017-12-22T09:36:34.144Z,7.90
2017-12-22T09:39:01.662Z,8.00
2017-12-22T09:41:29.926Z,7.90
2017-12-22T09:43:58.246Z,8.00
2017-12-22T09:46:25.780Z,8.00
2017-12-22T09:48:53.286Z,7.90
2017-12-22T09:51:20.798Z,7.80
2017-12-22T09:53:49.244Z,8.00
2017-12-22T09:56:17.564Z,8.00
2017-12-22T09:58:45.112Z,8.00
2017-12-22T10:01:13.384Z,8.40
2017-12-22T10:03:40.916Z,8.40
2017-12-22T10:06:08.438Z,8.10
2017-12-22T10:08:35.950Z,8.30
2017-12-22T10:11:03.475Z,8.50
2017-12-22T10:13:30.993Z,8.60
2017-12-22T10:15:58.492Z,8.60
2017-12-22T10:18:26.045Z,8.50
2017-12-22T10:20:53.560Z,8.50
2017-12-22T10:23:21.822Z,8.50
2017-12-22T10:25:50.121Z,8.50
2017-12-22T10:28:18.411Z,8.40
2017-12-22T10:30:45.961Z,8.40
2017-12-22T10:33:13.480Z,8.30
2017-12-22T10:35:41.108Z,8.20
2017-12-22T10:38:08.760Z,8.10
2017-12-22T10:40:36.393Z,8.00
2017-12-22T10:43:03.951Z,8.10
2017-12-22T10:45:32.250Z,8.10
2017-12-22T10:47:59.760Z,8.00
2017-12-22T10:50:27.314Z,8.00
2017-12-22T10:52:54.822Z,7.90
2017-12-22T10:55:22.367Z,7.90
2017-12-22T10:57:49.867Z,8.00
2017-12-22T11:00:17.395Z,8.10
2017-12-22T11:02:45.714Z,8.20
2017-12-22T11:05:13.214Z,8.20
2017-12-22T11:07:40.756Z,8.10
2017-12-22T11:10:08.269Z,8.20
2017-12-22T11:12:35.776Z,8.30
2017-12-22T11:15:03.308Z,8.40
2017-12-22T11:17:30.848Z,8.40
2017-12-22T11:19:58.367Z,8.40
2017-12-22T11:22:25.880Z,8.40
2017-12-22T11:24:53.373Z,8.30
2017-12-22T11:27:21.662Z,8.30
2017-12-22T11:29:49.952Z,8.30
2017-12-22T11:32:18.251Z,8.30
2017-12-22T11:34:45.771Z,8.30
2017-12-22T11:37:13.305Z,8.20
2017-12-22T11:39:40.794Z,8.20
2017-12-22T11:42:08.305Z,8.30
2017-12-22T11:44:35.796Z,8.40
2017-12-22T11:47:03.314Z,8.50
2017-12-22T11:49:30.836Z,8.30
2017-12-22T11:51:59.133Z,8.40
2017-12-22T11:54:26.648Z,8.40
2017-12-22T11:56:54.156Z,8.50
2017-12-22T11:59:21.706Z,8.50
2017-12-22T12:01:49.977Z,8.50
2017-12-22T12:04:18.249Z,8.60
2017-12-22T12:06:46.531Z,8.70
2017-12-22T12:09:14.809Z,8.80
2017-12-22T12:11:43.094Z,8.60
2017-12-22T12:14:11.387Z,8.60
2017-12-22T12:16:38.944Z,8.50
2017-12-22T12:19:06.456Z,8.50
2017-12-22T12:21:33.962Z,8.50
2017-12-22T12:24:01.506Z,8.50
2017-12-22T12:26:29.045Z,8.50
2017-12-22T12:28:56.610Z,8.60
2017-12-22T12:31:24.248Z,8.70
2017-12-22T12:33:51.768Z,8.80
2017-12-22T12:36:19.316Z,8.60
2017-12-22T12:38:46.841Z,8.60
2017-12-22T12:41:16.327Z,8.60
2017-12-22T12:43:43.876Z,8.40
2017-12-22T12:46:11.390Z,8.60
2017-12-22T12:48:38.927Z,8.70
2017-12-22T12:51:06.551Z,8.80
2017-12-22T12:53:34.088Z,8.80
2017-12-22T12:56:01.634Z,8.90
2017-12-22T12:58:29.151Z,9.10
2017-12-22T13:00:56.655Z,9.10
2017-12-22T13:03:24.181Z,8.90
2017-12-22T13:05:51.699Z,8.80
2017-12-22T13:08:19.438Z,8.90
2017-12-22T13:10:46.976Z,8.80
2017-12-22T13:13:14.478Z,8.70
2017-12-22T13:15:42.057Z,8.70
2017-12-22T13:18:09.572Z,8.60
2017-12-22T13:20:47.641Z,8.50
2017-12-22T13:23:15.144Z,8.50
2017-12-22T13:31:15.719Z,8.30
2017-12-22T13:33:43.220Z,8.50
2017-12-22T13:36:10.867Z,8.40
2017-12-22T13:38:38.385Z,8.50
2017-12-22T13:41:06.740Z,8.20
2017-12-22T13:43:34.247Z,8.20
2017-12-22T13:46:01.742Z,8.20
2017-12-22T13:48:29.254Z,8.40
2017-12-22T13:50:56.808Z,8.40
2017-12-22T13:53:24.305Z,8.40
2017-12-22T13:55:51.938Z,8.10
2017-12-22T13:58:19.439Z,8.20
2017-12-22T14:00:47.230Z,8.10
2017-12-22T14:03:14.751Z,8.00
2017-12-22T14:05:42.338Z,8.10
2017-12-22T14:08:10.060Z,8.20
2017-12-22T14:10:37.570Z,8.10
2017-12-22T14:13:05.895Z,8.00
2017-12-22T14:15:33.415Z,8.00
2017-12-22T14:18:00.924Z,7.70
2017-12-22T14:20:28.433Z,7.80
2017-12-22T14:22:56.713Z,7.70
2017-12-22T14:25:25.002Z,7.60
2017-12-22T14:27:52.515Z,7.60
2017-12-22T14:30:20.035Z,7.70
2017-12-22T14:32:47.562Z,7.80
2017-12-22T14:35:15.823Z,7.60
2017-12-22T14:37:43.339Z,7.60
2017-12-22T14:40:10.890Z,7.60
2017-12-22T14:42:38.429Z,7.70
2017-12-22T14:45:06.118Z,7.60
2017-12-22T14:47:33.627Z,7.50
2017-12-22T14:50:01.155Z,7.60
2017-12-22T14:52:28.797Z,7.60
2017-12-22T14:54:56.300Z,7.60
2017-12-22T14:57:23.802Z,7.60
2017-12-22T14:59:51.318Z,7.60
2017-12-22T15:02:18.813Z,7.50
2017-12-22T15:04:46.332Z,7.30
2017-12-22T15:07:13.842Z,7.50
2017-12-22T15:09:41.351Z,7.40
2017-12-22T15:12:08.863Z,7.50
2017-12-22T15:14:36.368Z,7.40
2017-12-22T15:17:03.870Z,7.30
2017-12-22T15:19:31.390Z,7.20
2017-12-22T15:21:58.893Z,7.30
2017-12-22T15:24:26.400Z,7.20
2017-12-22T15:26:53.969Z,7.10
2017-12-22T15:29:21.463Z,7.10
2017-12-22T15:31:49.022Z,7.20
2017-12-22T15:34:17.266Z,7.10
2017-12-22T15:36:44.808Z,7.10
2017-12-22T15:39:12.324Z,7.30
2017-12-22T15:41:39.823Z,7.40
2017-12-22T15:44:07.320Z,7.30
2017-12-22T15:46:34.841Z,7.40
2017-12-22T15:49:02.408Z,7.50
2017-12-22T15:51:29.929Z,7.30
2017-12-22T15:53:57.437Z,7.30
2017-12-22T15:56:24.945Z,7.20
2017-12-22T15:58:52.613Z,7.10
2017-12-22T16:01:20.099Z,7.10
2017-12-22T16:03:47.619Z,7.10
2017-12-22T16:06:15.250Z,7.20
2017-12-22T16:08:43.564Z,7.40
2017-12-22T16:11:11.081Z,7.40
2017-12-22T16:13:38.603Z,7.50
2017-12-22T16:16:06.134Z,7.50
2017-12-22T16:18:33.726Z,7.40
2017-12-22T16:21:01.258Z,7.20
2017-12-22T16:23:28.769Z,7.30
2017-12-22T16:25:56.400Z,7.40
2017-12-22T16:28:23.898Z,7.40
2017-12-22T16:30:51.427Z,7.50
2017-12-22T16:33:18.951Z,7.50
2017-12-22T16:35:46.441Z,7.40
2017-12-22T16:38:13.952Z,7.40
2017-12-22T16:40:41.647Z,7.20
2017-12-22T16:43:09.130Z,7.30
2017-12-22T16:45:36.662Z,7.30
2017-12-22T16:48:04.150Z,7.20
2017-12-22T16:50:31.686Z,7.20
2017-12-22T16:52:59.180Z,7.20
2017-12-22T16:55:26.667Z,6.90
2017-12-22T16:57:54.939Z,7.00
2017-12-22T17:00:23.311Z,6.90
2017-12-22T17:02:50.847Z,6.90
2017-12-22T17:05:18.399Z,7.00
2017-12-22T17:07:45.916Z,7.00
2017-12-22T17:10:13.420Z,7.00
2017-12-22T17:12:40.942Z,6.90
2017-12-22T17:15:08.451Z,7.00
2017-12-22T17:17:35.960Z,7.10
2017-12-22T17:20:03.467Z,7.10
2017-12-22T17:22:30.996Z,7.10
2017-12-22T17:24:58.551Z,7.00
2017-12-22T17:27:26.059Z,7.10
2017-12-22T17:29:53.577Z,7.00
2017-12-22T17:32:21.096Z,6.90
2017-12-22T17:34:48.646Z,7.00
2017-12-22T17:37:16.928Z,6.90
2017-12-22T17:39:45.191Z,7.10
2017-12-22T17:42:12.751Z,7.10
2017-12-22T17:44:40.371Z,7.10
2017-12-22T17:47:07.882Z,7.10
2017-12-22T17:49:35.429Z,7.10
2017-12-22T17:52:02.945Z,7.10
2017-12-22T17:54:30.456Z,7.10
2017-12-22T17:56:57.958Z,6.90
2017-12-22T17:59:25.513Z,6.90
2017-12-22T18:01:53.010Z,6.60
2017-12-22T18:04:20.655Z,6.60
2017-12-22T18:06:48.233Z,6.60
2017-12-22T18:09:15.686Z,6.60
2017-12-22T18:11:43.191Z,6.60
2017-12-22T18:14:11.493Z,6.60
2017-12-22T18:16:39.012Z,6.60
2017-12-22T18:19:06.546Z,6.60
2017-12-22T18:21:34.880Z,6.50
2017-12-22T18:24:02.635Z,6.50
2017-12-22T18:26:34.580Z,6.50
2017-12-22T18:29:02.860Z,6.60
2017-12-22T18:31:30.392Z,6.50
2017-12-22T18:33:57.948Z,6.40
2017-12-22T18:36:25.447Z,6.60
2017-12-22T18:38:52.981Z,6.50
2017-12-22T18:41:20.499Z,6.50
2017-12-22T18:43:48.030Z,6.60
2017-12-22T18:46:15.555Z,6.50
2017-12-22T18:48:43.076Z,6.40
2017-12-22T18:51:10.584Z,6.50
2017-12-22T18:53:38.086Z,6.40
2017-12-22T18:56:05.708Z,6.40
2017-12-22T18:58:33.345Z,6.40
2017-12-22T19:01:00.854Z,6.40
2017-12-22T19:03:30.300Z,6.50
2017-12-22T19:05:57.867Z,6.50
2017-12-22T19:08:25.423Z,6.30
2017-12-22T19:10:52.920Z,6.50
2017-12-22T19:13:20.445Z,6.50
2017-12-22T19:15:47.998Z,6.50
2017-12-22T19:18:15.507Z,6.40
2017-12-22T19:20:43.217Z,6.40
2017-12-22T19:23:11.490Z,6.40
2017-12-22T19:25:39.970Z,6.40
2017-12-22T19:28:07.506Z,6.40
2017-12-22T19:30:35.043Z,6.50
2017-12-22T19:33:02.588Z,6.50
2017-12-22T19:35:30.099Z,6.30
2017-12-22T19:37:57.653Z,6.40
2017-12-22T19:40:25.158Z,6.60
2017-12-22T19:42:52.664Z,6.40
2017-12-22T19:45:20.235Z,6.50
2017-12-22T19:47:47.761Z,6.30
2017-12-22T19:50:16.027Z,6.50
2017-12-22T19:52:43.536Z,6.50
2017-12-22T19:55:11.055Z,6.40
2017-12-22T19:57:38.572Z,6.60
2017-12-22T20:00:06.071Z,6.50
2017-12-22T20:02:34.345Z,6.50
2017-12-22T20:05:02.675Z,6.50
2017-12-22T20:07:30.185Z,6.50
2017-12-22T20:09:57.691Z,6.60
2017-12-22T20:12:25.223Z,6.30
2017-12-22T20:14:52.741Z,6.40
2017-12-22T20:17:20.244Z,6.50
2017-12-22T20:19:47.754Z,6.40
2017-12-22T20:22:15.900Z,6.40
2017-12-22T20:24:43.442Z,6.40
2017-12-22T20:27:11.056Z,6.30
2017-12-22T20:29:38.571Z,6.40
2017-12-22T20:32:06.103Z,6.50
2017-12-22T20:34:34.358Z,6.50
2017-12-22T20:37:01.903Z,6.50
2017-12-22T20:39:29.432Z,6.60
2017-12-22T20:41:56.940Z,6.60
2017-12-22T20:44:25.216Z,6.50
2017-12-22T20:46:52.737Z,6.50
2017-12-22T20:49:20.260Z,6.50
2017-12-22T20:51:47.768Z,6.50
2017-12-22T20:54:15.270Z,6.50
2017-12-22T20:56:43.537Z,6.60
2017-12-22T20:59:11.056Z,6.60
2017-12-22T21:01:38.585Z,6.40
2017-12-22T21:04:06.150Z,6.50
2017-12-22T21:06:34.784Z,6.60
2017-12-22T21:09:02.658Z,6.70
2017-12-22T21:11:30.371Z,6.70
2017-12-22T21:13:59.746Z,6.80
2017-12-22T21:16:27.270Z,6.70
2017-12-22T21:18:54.778Z,6.60
2017-12-22T21:21:23.055Z,6.70
2017-12-22T21:23:50.568Z,6.60
2017-12-22T21:26:18.097Z,6.40
2017-12-22T21:28:45.713Z,6.40
2017-12-22T21:31:13.223Z,6.30
2017-12-22T21:33:40.750Z,6.40
2017-12-22T21:36:08.312Z,6.50
2017-12-22T21:38:35.871Z,6.40
2017-12-22T21:41:03.387Z,6.30
2017-12-22T21:43:30.929Z,6.40
2017-12-22T21:45:58.432Z,6.50
2017-12-22T21:48:26.703Z,6.50
2017-12-22T21:50:54.204Z,6.50
2017-12-22T21:53:21.769Z,6.60
2017-12-22T21:55:49.258Z,6.50
2017-12-22T21:58:16.764Z,6.70
2017-12-22T22:00:44.286Z,6.70
2017-12-22T22:03:11.809Z,6.70
2017-12-22T22:05:39.333Z,6.60
2017-12-22T22:08:07.610Z,6.50
2017-12-22T22:10:35.867Z,6.60
2017-12-22T22:13:03.390Z,6.50
2017-12-22T22:15:30.899Z,6.60
2017-12-22T22:17:58.432Z,6.60
2017-12-22T22:20:25.937Z,6.70
2017-12-22T22:22:53.460Z,6.70
2017-12-22T22:25:21.055Z,6.80
2017-12-22T22:27:48.577Z,6.90
2017-12-22T22:30:16.086Z,6.70
2017-12-22T22:32:43.588Z,6.80
2017-12-22T22:35:11.076Z,6.60
2017-12-22T22:37:39.396Z,6.60
2017-12-22T22:40:06.926Z,6.60
2017-12-22T22:42:34.468Z,6.60
2017-12-22T22:45:02.842Z,6.60
2017-12-22T22:47:30.351Z,6.60
2017-12-22T22:49:57.860Z,6.50
2017-12-22T22:52:26.118Z,6.50
2017-12-22T22:54:53.645Z,6.50
2017-12-22T22:57:21.150Z,6.50
2017-12-22T22:59:48.661Z,6.30
2017-12-22T23:02:16.168Z,6.40
2017-12-22T23:04:43.683Z,6.30
2017-12-22T23:07:11.187Z,6.20
2017-12-22T23:09:38.718Z,6.20
2017-12-22T23:12:06.255Z,6.20
2017-12-22T23:14:33.775Z,6.00
2017-12-22T23:17:02.088Z,6.10
2017-12-22T23:19:29.606Z,6.00
2017-12-22T23:21:57.906Z,6.10
2017-12-22T23:24:25.414Z,6.10
2017-12-22T23:26:52.909Z,6.10
2017-12-22T23:29:20.417Z,6.10
2017-12-22T23:31:53.797Z,6.20
2017-12-22T23:34:21.319Z,6.10
2017-12-22T23:36:51.179Z,6.00
2017-12-22T23:39:18.696Z,6.00
2017-12-22T23:41:46.963Z,6.00
2017-12-22T23:44:14.578Z,6.00
2017-12-22T23:46:42.272Z,5.90
2017-12-22T23:49:09.791Z,6.00
2017-12-22T23:51:37.319Z,6.00
2017-12-22T23:54:04.981Z,5.80
2017-12-22T23:56:32.537Z,5.90
2017-12-22T23:59:01.674Z,5.80
